Time;durP1;ratioP1;P1;durP2;ratioP2;P2;SDS_P1;SDS_P2;PMS_P1;PMS_P2;Temp;Humidity;BMP_temperature;BMP_pressure;BME280_temperature;BME280_humidity;BME280_pressure;Samples;Min_cycle;Max_cycle;Signal;HPM_P1;HPM_P2
2022/02/05 00:01:52;;;;;;;2.28;0.70;;;;;;;;;;4921283;29;20034;-76
2022/02/05 00:04:18;;;;;;;1.85;0.60;;;;;;;;;;4923465;29;20059;-76
2022/02/05 00:06:47;;;;;;;2.05;0.60;;;;;;;;;;4923999;29;20099;-76
2022/02/05 00:09:18;;;;;;;3.22;0.70;;;;;;;;;;4920608;29;20020;-77
2022/02/05 00:33:16;;;;;;;1.52;0.65;;;;;;;;;;4921492;29;20072;-77
2022/02/05 00:41:45;;;;;;;4.03;1.10;;;;;;;;;;4919816;29;20215;-76
2022/02/05 00:44:10;;;;;;;3.15;1.17;;;;;;;;;;4919642;29;20103;-76
2022/02/05 00:46:56;;;;;;;4.18;0.80;;;;;;;;;;4913562;29;20107;-77
2022/02/05 00:49:21;;;;;;;3.85;0.95;;;;;;;;;;4917247;29;20442;-76
2022/02/05 00:52:10;;;;;;;7.40;1.83;;;;;;;;;;4900487;29;20076;-76
2022/02/05 00:54:34;;;;;;;3.38;0.93;;;;;;;;;;4918141;29;20516;-77
2022/02/05 00:59:31;;;;;;;3.33;1.17;;;;;;;;;;4918766;29;20020;-76
2022/02/05 01:01:56;;;;;;;3.65;1.20;;;;;;;;;;4918794;29;20486;-76
2022/02/05 01:04:21;;;;;;;5.78;1.08;;;;;;;;;;4919339;29;20476;-76
2022/02/05 01:06:46;;;;;;;3.13;1.13;;;;;;;;;;4919117;29;20027;-76
2022/02/05 01:09:18;;;;;;;6.47;1.17;;;;;;;;;;4919580;29;20020;-76
2022/02/05 01:11:44;;;;;;;3.40;1.20;;;;;;;;;;4919165;29;20039;-77
2022/02/05 01:14:12;;;;;;;3.10;0.95;;;;;;;;;;4918380;29;20024;-76
2022/02/05 01:19:17;;;;;;;8.82;1.35;;;;;;;;;;4918796;29;20042;-76
2022/02/05 01:21:49;;;;;;;5.45;1.52;;;;;;;;;;4918590;29;20068;-77
2022/02/05 01:24:17;;;;;;;7.85;1.58;;;;;;;;;;4918682;29;20032;-77
2022/02/05 01:26:52;;;;;;;5.30;1.60;;;;;;;;;;4918369;29;20062;-76
2022/02/05 01:29:35;;;;;;;6.60;1.45;;;;;;;;;;4918201;29;20493;-76
2022/02/05 01:32:05;;;;;;;7.40;1.55;;;;;;;;;;4918192;29;20091;-76
2022/02/05 01:34:44;;;;;;;7.38;1.30;;;;;;;;;;4901481;29;20032;-77
2022/02/05 01:53:51;;;;;;;3.50;0.82;;;;;;;;;;4917738;29;20032;-76
2022/02/05 01:56:43;;;;;;;6.70;1.85;;;;;;;;;;4917837;29;20024;-77
2022/02/05 02:12:21;;;;;;;5.90;1.38;;;;;;;;;;4923290;29;20023;-77
2022/02/05 02:14:56;;;;;;;5.65;1.35;;;;;;;;;;4901682;29;20397;-76
2022/02/05 02:18:01;;;;;;;6.03;1.40;;;;;;;;;;4917623;29;20030;-77
2022/02/05 02:20:31;;;;;;;2.03;0.85;;;;;;;;;;4916508;29;20036;-77
2022/02/05 02:23:08;;;;;;;11.73;1.48;;;;;;;;;;4916999;29;20039;-76
2022/02/05 02:28:18;;;;;;;5.35;1.20;;;;;;;;;;4917258;29;20112;-77
2022/02/05 02:30:54;;;;;;;8.73;1.50;;;;;;;;;;4917125;29;20020;-76
2022/02/05 02:33:29;;;;;;;12.27;1.70;;;;;;;;;;4917282;29;20020;-77
2022/02/05 02:35:54;;;;;;;7.68;1.63;;;;;;;;;;4900688;29;20032;-77
2022/02/05 02:38:24;;;;;;;6.18;1.42;;;;;;;;;;4918529;29;20027;-77
2022/02/05 02:43:24;;;;;;;8.25;1.30;;;;;;;;;;4918761;29;20533;-77
2022/02/05 02:45:50;;;;;;;7.15;1.80;;;;;;;;;;4901225;29;20504;-77
2022/02/05 02:48:15;;;;;;;3.67;1.35;;;;;;;;;;4918673;29;20024;-76
2022/02/05 02:58:54;;;;;;;7.50;1.67;;;;;;;;;;4917399;29;20040;-76
2022/02/05 03:01:20;;;;;;;8.60;1.67;;;;;;;;;;4899829;29;20020;-77
2022/02/05 03:03:46;;;;;;;6.13;1.60;;;;;;;;;;4917106;29;20028;-76
2022/02/05 03:06:11;;;;;;;7.38;1.75;;;;;;;;;;4916552;29;20020;-77
2022/02/05 03:08:36;;;;;;;3.17;1.20;;;;;;;;;;4900120;29;20545;-77
2022/02/05 03:11:02;;;;;;;4.88;1.50;;;;;;;;;;4917285;29;20024;-76
2022/02/05 03:13:28;;;;;;;4.93;1.27;;;;;;;;;;4917437;29;20020;-76
2022/02/05 03:15:53;;;;;;;6.07;1.40;;;;;;;;;;4900085;29;20119;-76
2022/02/05 03:21:02;;;;;;;6.63;1.13;;;;;;;;;;4916668;29;20099;-75
2022/02/05 03:23:27;;;;;;;10.52;1.45;;;;;;;;;;4917389;29;20024;-76
2022/02/05 03:25:52;;;;;;;3.30;1.15;;;;;;;;;;4917789;29;20474;-76
2022/02/05 03:28:18;;;;;;;4.63;1.73;;;;;;;;;;4899493;29;20506;-76
2022/02/05 03:30:43;;;;;;;3.55;1.20;;;;;;;;;;4916527;29;20039;-76
2022/02/05 03:33:08;;;;;;;3.83;1.10;;;;;;;;;;4918388;29;20434;-76
2022/02/05 03:35:36;;;;;;;4.10;1.20;;;;;;;;;;4919047;29;20040;-77
2022/02/05 03:38:01;;;;;;;2.05;1.02;;;;;;;;;;4919685;29;20103;-77
2022/02/05 03:40:26;;;;;;;3.83;1.33;;;;;;;;;;4902280;29;20125;-76
2022/02/05 03:42:51;;;;;;;6.85;1.33;;;;;;;;;;4918282;29;20055;-76
2022/02/05 03:45:17;;;;;;;6.38;1.55;;;;;;;;;;4918294;29;20396;-77
2022/02/05 03:47:42;;;;;;;10.93;1.70;;;;;;;;;;4917564;29;20012;-77
2022/02/05 03:50:07;;;;;;;4.25;1.35;;;;;;;;;;4900153;29;20017;-76
2022/02/05 03:52:33;;;;;;;8.80;1.98;;;;;;;;;;4900634;29;20031;-77
2022/02/05 03:54:58;;;;;;;7.20;2.05;;;;;;;;;;4916879;29;20022;-76
2022/02/05 03:57:23;;;;;;;7.68;1.63;;;;;;;;;;4900238;29;20053;-76
2022/02/05 03:59:50;;;;;;;2.92;1.25;;;;;;;;;;4899786;29;20087;-76
2022/02/05 04:02:15;;;;;;;5.97;1.50;;;;;;;;;;4916646;29;20035;-76
2022/02/05 04:04:40;;;;;;;11.13;1.92;;;;;;;;;;4916515;29;20032;-76
2022/02/05 04:07:06;;;;;;;5.65;1.60;;;;;;;;;;4916865;29;20016;-76
2022/02/05 04:09:39;;;;;;;10.00;2.03;;;;;;;;;;4916007;29;20020;-77
2022/02/05 04:17:35;;;;;;;6.22;1.33;;;;;;;;;;4917687;29;20043;-76
2022/02/05 04:20:00;;;;;;;5.47;1.70;;;;;;;;;;4917202;29;20028;-76
2022/02/05 04:22:26;;;;;;;3.85;1.60;;;;;;;;;;4899944;29;20036;-76
2022/02/05 04:24:52;;;;;;;8.05;2.00;;;;;;;;;;4917577;29;20024;-77
2022/02/05 04:27:17;;;;;;;5.68;1.40;;;;;;;;;;4917729;29;20024;-76
2022/02/05 04:29:42;;;;;;;7.65;1.73;;;;;;;;;;4918166;29;20414;-76
2022/02/05 04:32:07;;;;;;;10.88;2.15;;;;;;;;;;4917813;29;20023;-76
2022/02/05 04:34:33;;;;;;;7.45;1.80;;;;;;;;;;4921337;29;20020;-77
2022/02/05 04:37:00;;;;;;;10.07;1.40;;;;;;;;;;4921613;29;20021;-77
2022/02/05 04:39:25;;;;;;;5.35;1.33;;;;;;;;;;4920690;29;20524;-76
2022/02/05 04:41:58;;;;;;;4.55;1.70;;;;;;;;;;4922399;29;20016;-77
2022/02/05 04:50:18;;;;;;;7.90;1.42;;;;;;;;;;4904607;29;20056;-76
2022/02/05 04:53:07;;;;;;;4.13;1.77;;;;;;;;;;4904289;29;20379;-76
2022/02/05 04:58:27;;;;;;;7.03;1.92;;;;;;;;;;4923597;29;20036;-76
2022/02/05 05:01:05;;;;;;;7.65;1.85;;;;;;;;;;4923362;29;20028;-77
2022/02/05 05:08:52;;;;;;;6.88;1.95;;;;;;;;;;4925513;29;20529;-76
2022/02/05 05:11:37;;;;;;;7.70;1.85;;;;;;;;;;4920650;29;20027;-77
2022/02/05 05:19:25;;;;;;;8.90;1.80;;;;;;;;;;4920079;29;20035;-76
2022/02/05 05:21:50;;;;;;;5.75;2.05;;;;;;;;;;4921365;29;20040;-77
2022/02/05 05:24:16;;;;;;;5.90;2.30;;;;;;;;;;4920989;29;20107;-77
2022/02/05 05:26:41;;;;;;;8.88;2.25;;;;;;;;;;4904644;29;20031;-77
2022/02/05 05:29:06;;;;;;;5.03;2.08;;;;;;;;;;4924095;29;20024;-77
2022/02/05 05:31:31;;;;;;;7.47;2.28;;;;;;;;;;4924499;29;20024;-77
2022/02/05 05:33:57;;;;;;;6.07;2.20;;;;;;;;;;4923497;29;20077;-77
2022/02/05 05:36:22;;;;;;;6.22;2.13;;;;;;;;;;4925032;29;20052;-76
2022/02/05 05:38:47;;;;;;;6.60;2.40;;;;;;;;;;4934494;29;20020;-76
2022/02/05 05:41:12;;;;;;;4.90;2.58;;;;;;;;;;4922296;29;20012;-77
2022/02/05 05:48:32;;;;;;;5.80;2.55;;;;;;;;;;4940569;29;20032;-76
2022/02/05 05:50:58;;;;;;;;;;;;;;;;;;4924185;29;20008;-77
2022/02/05 05:53:23;;;;;;;7.85;2.45;;;;;;;;;;4929342;29;19906;-77
2022/02/05 05:55:48;;;;;;;5.45;2.15;;;;;;;;;;4925384;29;20047;-77
2022/02/05 05:58:15;;;;;;;3.85;2.33;;;;;;;;;;4925842;29;20020;-77
2022/02/05 06:00:41;;;;;;;6.47;2.25;;;;;;;;;;4910238;29;20016;-77
2022/02/05 06:03:06;;;;;;;8.40;2.70;;;;;;;;;;4910120;29;20016;-77
2022/02/05 06:05:32;;;;;;;9.27;2.60;;;;;;;;;;4909789;29;20589;-77
2022/02/05 06:07:57;;;;;;;8.45;2.83;;;;;;;;;;4924640;29;20023;-76
2022/02/05 06:10:22;;;;;;;5.25;2.17;;;;;;;;;;4923292;29;20470;-77
2022/02/05 06:12:48;;;;;;;4.72;2.03;;;;;;;;;;4915793;29;20422;-77
2022/02/05 06:15:13;;;;;;;7.68;2.42;;;;;;;;;;4923372;29;20470;-77
2022/02/05 06:17:38;;;;;;;6.00;2.45;;;;;;;;;;4922128;29;20024;-77
2022/02/05 06:20:05;;;;;;;6.68;2.30;;;;;;;;;;4920959;29;20027;-77
2022/02/05 06:22:30;;;;;;;8.63;2.40;;;;;;;;;;4903938;29;20032;-77
2022/02/05 06:24:55;;;;;;;5.28;2.40;;;;;;;;;;4902291;29;20105;-77
2022/02/05 06:27:20;;;;;;;9.30;2.22;;;;;;;;;;4918401;29;20017;-76
2022/02/05 06:29:45;;;;;;;3.72;2.12;;;;;;;;;;4918026;29;20028;-77
2022/02/05 06:32:11;;;;;;;3.90;1.80;;;;;;;;;;4919332;29;20033;-76
2022/02/05 06:34:36;;;;;;;6.13;2.10;;;;;;;;;;4919419;29;20080;-76
2022/02/05 06:37:01;;;;;;;7.55;2.20;;;;;;;;;;4918556;29;20075;-77
2022/02/05 06:39:27;;;;;;;5.50;2.00;;;;;;;;;;4901713;29;20027;-76
2022/02/05 06:41:52;;;;;;;6.63;2.13;;;;;;;;;;4901532;29;20020;-77
2022/02/05 06:44:17;;;;;;;8.60;2.40;;;;;;;;;;4919748;29;20035;-76
2022/02/05 06:46:43;;;;;;;8.35;2.25;;;;;;;;;;4902087;29;20431;-77
2022/02/05 06:49:08;;;;;;;10.20;2.33;;;;;;;;;;4918762;29;20020;-76
2022/02/05 06:51:36;;;;;;;5.38;2.20;;;;;;;;;;4918733;29;20103;-76
2022/02/05 06:54:02;;;;;;;6.85;1.98;;;;;;;;;;4918560;29;20036;-76
2022/02/05 06:56:27;;;;;;;4.47;2.42;;;;;;;;;;4917463;29;20028;-77
2022/02/05 06:58:52;;;;;;;4.30;2.08;;;;;;;;;;4900481;29;20489;-76
2022/02/05 07:01:18;;;;;;;5.40;1.92;;;;;;;;;;4917753;29;20024;-77
2022/02/05 07:03:43;;;;;;;5.88;2.20;;;;;;;;;;4900679;29;20020;-76
2022/02/05 07:06:08;;;;;;;4.78;1.95;;;;;;;;;;4900166;29;20521;-77
2022/02/05 07:08:33;;;;;;;6.88;2.30;;;;;;;;;;4917835;29;20064;-77
2022/02/05 07:10:59;;;;;;;7.28;2.40;;;;;;;;;;4916218;29;20179;-76
2022/02/05 07:13:24;;;;;;;6.75;2.00;;;;;;;;;;4917630;29;20229;-76
2022/02/05 07:21:06;;;;;;;7.13;2.35;;;;;;;;;;4917210;29;20040;-76
2022/02/05 07:29:15;;;;;;;5.68;2.58;;;;;;;;;;4919075;29;20031;-76
2022/02/05 07:31:48;;;;;;;7.82;2.17;;;;;;;;;;4901453;29;20024;-76
2022/02/05 07:34:14;;;;;;;8.38;2.38;;;;;;;;;;4901048;29;20481;-76
2022/02/05 07:36:39;;;;;;;6.78;2.25;;;;;;;;;;4918793;29;20035;-77
2022/02/05 07:39:06;;;;;;;5.43;2.17;;;;;;;;;;4918276;29;20032;-76
2022/02/05 07:41:31;;;;;;;6.78;2.03;;;;;;;;;;4916783;29;20103;-76
2022/02/05 07:43:57;;;;;;;14.27;2.55;;;;;;;;;;4917155;29;20055;-76
2022/02/05 07:46:23;;;;;;;9.98;2.15;;;;;;;;;;4917465;29;20470;-76
2022/02/05 07:48:48;;;;;;;4.93;2.50;;;;;;;;;;4917434;29;20051;-76
2022/02/05 07:51:13;;;;;;;7.20;2.70;;;;;;;;;;4918641;29;20470;-77
2022/02/05 07:53:39;;;;;;;5.55;2.20;;;;;;;;;;4918672;29;20016;-77
2022/02/05 07:56:05;;;;;;;13.85;2.58;;;;;;;;;;4920112;29;20025;-76
2022/02/05 07:58:31;;;;;;;5.70;2.58;;;;;;;;;;4918367;29;20122;-76
2022/02/05 08:00:56;;;;;;;8.35;2.72;;;;;;;;;;4900064;29;20478;-76
2022/02/05 08:03:22;;;;;;;7.78;2.90;;;;;;;;;;4900686;29;20039;-76
2022/02/05 08:05:47;;;;;;;6.43;2.38;;;;;;;;;;4917557;29;20072;-76
2022/02/05 08:08:16;;;;;;;6.07;2.20;;;;;;;;;;4918252;29;20101;-76
2022/02/05 08:11:01;;;;;;;5.53;1.88;;;;;;;;;;4920212;29;20020;-76
2022/02/05 08:13:29;;;;;;;8.65;2.42;;;;;;;;;;4919699;29;20021;-76
2022/02/05 08:15:58;;;;;;;6.00;2.22;;;;;;;;;;4921076;29;20083;-76
2022/02/05 08:18:23;;;;;;;;;;;;;;;;;;4920437;29;20039;-77
2022/02/05 08:20:49;;;;;;;8.40;2.10;;;;;;;;;;4920177;29;19915;-76
2022/02/05 08:23:14;;;;;;;10.57;2.22;;;;;;;;;;4920969;29;20039;-76
2022/02/05 08:25:39;;;;;;;6.35;2.20;;;;;;;;;;4921799;29;20024;-76
2022/02/05 08:28:04;;;;;;;6.63;2.03;;;;;;;;;;4919452;29;20028;-75
2022/02/05 08:30:30;;;;;;;7.00;2.38;;;;;;;;;;4919986;29;20012;-75
2022/02/05 08:32:57;;;;;;;9.88;2.42;;;;;;;;;;4919717;29;20024;-76
2022/02/05 08:35:23;;;;;;;7.63;2.10;;;;;;;;;;4919939;29;20055;-76
2022/02/05 08:37:49;;;;;;;10.93;3.35;;;;;;;;;;4919842;29;20071;-76
2022/02/05 08:40:16;;;;;;;7.68;2.47;;;;;;;;;;4919860;29;20497;-76
2022/02/05 08:42:41;;;;;;;9.27;2.10;;;;;;;;;;4920469;29;20019;-76
2022/02/05 08:45:07;;;;;;;3.80;1.92;;;;;;;;;;4920997;29;20576;-75
2022/02/05 08:47:33;;;;;;;9.75;2.05;;;;;;;;;;4921631;29;20040;-75
2022/02/05 08:49:59;;;;;;;10.75;1.80;;;;;;;;;;4921204;29;20024;-76
2022/02/05 08:52:25;;;;;;;6.68;1.80;;;;;;;;;;4904907;29;20521;-75
2022/02/05 08:54:50;;;;;;;8.18;2.13;;;;;;;;;;4921557;29;20020;-75
2022/02/05 08:57:15;;;;;;;8.77;2.30;;;;;;;;;;4906337;29;20055;-76
2022/02/05 09:00:02;;;;;;;7.25;2.10;;;;;;;;;;4922509;29;20031;-75
2022/02/05 09:07:18;;;;;;;7.22;1.83;;;;;;;;;;4921137;29;20032;-76
2022/02/05 09:14:42;;;;;;;8.40;2.53;;;;;;;;;;4922236;29;20039;-75
2022/02/05 09:17:07;;;;;;;13.23;2.80;;;;;;;;;;4921963;29;20258;-75
2022/02/05 09:19:35;;;;;;;9.23;1.77;;;;;;;;;;4921576;29;20287;-76
2022/02/05 09:22:00;;;;;;;6.13;1.52;;;;;;;;;;4921115;29;20038;-75
2022/02/05 09:24:25;;;;;;;8.77;1.80;;;;;;;;;;4919520;29;20028;-75
2022/02/05 09:26:58;;;;;;;6.30;1.70;;;;;;;;;;4919347;29;20020;-76
2022/02/05 09:29:23;;;;;;;9.15;1.90;;;;;;;;;;4919580;29;20016;-75
2022/02/05 09:31:49;;;;;;;6.45;1.63;;;;;;;;;;4902428;29;20039;-76
2022/02/05 09:34:15;;;;;;;10.00;2.00;;;;;;;;;;4902632;29;20044;-76
2022/02/05 09:36:40;;;;;;;8.70;1.75;;;;;;;;;;4919994;29;20084;-75
2022/02/05 09:39:09;;;;;;;5.78;1.63;;;;;;;;;;4903147;29;20521;-75
2022/02/05 09:41:35;;;;;;;7.53;1.70;;;;;;;;;;4922057;29;20024;-75
2022/02/05 09:44:01;;;;;;;4.68;1.63;;;;;;;;;;4920779;29;20026;-76
2022/02/05 09:46:26;;;;;;;7.55;1.80;;;;;;;;;;4921478;29;20024;-75
2022/02/05 09:48:52;;;;;;;5.75;1.40;;;;;;;;;;4922055;29;20016;-76
2022/02/05 09:51:19;;;;;;;5.35;1.48;;;;;;;;;;4922004;29;20016;-76
2022/02/05 09:53:48;;;;;;;4.90;1.63;;;;;;;;;;4904715;29;20103;-75
2022/02/05 09:56:14;;;;;;;6.18;1.70;;;;;;;;;;4921148;29;20083;-76
2022/02/05 09:58:39;;;;;;;4.32;1.40;;;;;;;;;;4921098;29;20044;-76
2022/02/05 10:01:26;;;;;;;8.48;2.60;;;;;;;;;;4920339;29;20500;-76
2022/02/05 10:03:51;;;;;;;5.10;1.48;;;;;;;;;;4903929;29;20040;-75
2022/02/05 10:06:24;;;;;;;7.72;1.30;;;;;;;;;;4903756;29;20028;-76
2022/02/05 10:08:58;;;;;;;13.02;2.65;;;;;;;;;;4919128;29;20021;-75
2022/02/05 10:11:23;;;;;;;5.72;1.55;;;;;;;;;;4919689;29;20016;-76
2022/02/05 10:13:48;;;;;;;6.38;1.77;;;;;;;;;;4919756;29;20027;-75
2022/02/05 10:16:14;;;;;;;4.75;1.13;;;;;;;;;;4920487;29;20531;-76
2022/02/05 10:18:43;;;;;;;3.72;1.42;;;;;;;;;;4921147;29;20047;-76
2022/02/05 10:21:08;;;;;;;;;;;;;;;;;;4926056;23;20515;-80
2022/02/05 10:23:33;;;;;;;8.75;1.40;;;;;;;;;;4923754;29;20383;-80
2022/02/05 10:25:58;;;;;;;6.10;1.60;;;;;;;;;;4940510;29;20054;-80
2022/02/05 10:28:23;;;;;;;5.07;1.40;;;;;;;;;;4939924;29;20048;-80
2022/02/05 10:30:52;;;;;;;7.15;1.88;;;;;;;;;;4934281;29;20020;-80
2022/02/05 10:33:34;;;;;;;7.80;1.75;;;;;;;;;;4904878;29;20031;-81
2022/02/05 10:43:54;;;;;;;4.28;1.35;;;;;;;;;;4922165;29;20039;-80
2022/02/05 10:46:19;;;;;;;6.95;1.70;;;;;;;;;;4923542;29;20024;-81
2022/02/05 10:48:45;;;;;;;9.50;1.55;;;;;;;;;;4902736;29;20027;-80
2022/02/05 10:51:10;;;;;;;6.53;1.77;;;;;;;;;;4920352;29;20020;-79
2022/02/05 10:53:48;;;;;;;5.95;1.50;;;;;;;;;;4919271;29;20024;-77
2022/02/05 11:07:10;;;;;;;3.58;1.27;;;;;;;;;;4923251;29;20043;-81
2022/02/05 11:09:37;;;;;;;5.38;1.50;;;;;;;;;;4921279;29;20024;-80
2022/02/05 11:20:47;;;;;;;13.80;1.85;;;;;;;;;;4900161;29;20048;-78
2022/02/05 11:25:59;;;;;;;5.05;1.15;;;;;;;;;;4920324;29;20043;-79
2022/02/05 11:28:43;;;;;;;9.68;1.30;;;;;;;;;;4920220;29;20024;-79
2022/02/05 11:31:09;;;;;;;8.85;1.45;;;;;;;;;;4902040;29;20021;-79
2022/02/05 11:33:34;;;;;;;6.40;1.42;;;;;;;;;;4917388;29;20031;-79
2022/02/05 11:38:39;;;;;;;6.85;2.10;;;;;;;;;;4917321;29;20095;-78
2022/02/05 11:41:06;;;;;;;5.57;1.25;;;;;;;;;;4917712;29;20048;-78
2022/02/05 11:43:35;;;;;;;5.57;1.55;;;;;;;;;;4920215;29;20020;-79
2022/02/05 11:46:04;;;;;;;6.22;1.65;;;;;;;;;;4906204;29;20032;-78
2022/02/05 11:48:48;;;;;;;4.57;1.20;;;;;;;;;;4922628;29;20486;-79
2022/02/05 11:51:19;;;;;;;6.20;1.10;;;;;;;;;;4921682;29;20055;-78
2022/02/05 11:53:59;;;;;;;4.35;1.17;;;;;;;;;;4921493;29;20031;-79
2022/02/05 11:57:05;;;;;;;4.30;1.55;;;;;;;;;;4922034;29;20023;-78
2022/02/05 11:59:49;;;;;;;11.18;1.52;;;;;;;;;;4922067;29;20035;-78
2022/02/05 12:02:18;;;;;;;3.90;1.13;;;;;;;;;;4921722;29;20028;-79
2022/02/05 12:04:44;;;;;;;6.15;1.17;;;;;;;;;;4922254;29;20031;-79
2022/02/05 12:07:11;;;;;;;4.00;1.15;;;;;;;;;;4923687;29;20016;-80
2022/02/05 12:09:39;;;;;;;7.78;1.40;;;;;;;;;;4923405;29;20101;-81
2022/02/05 12:12:26;;;;;;;5.60;1.23;;;;;;;;;;4922571;29;20112;-81
2022/02/05 12:15:10;;;;;;;4.15;1.05;;;;;;;;;;4923317;29;20032;-81
2022/02/05 12:17:56;;;;;;;7.80;1.33;;;;;;;;;;4921664;29;20016;-79
2022/02/05 12:20:26;;;;;;;11.40;2.22;;;;;;;;;;4922922;29;20083;-79
2022/02/05 12:23:30;;;;;;;7.00;1.10;;;;;;;;;;4922749;29;20028;-81
2022/02/05 12:25:58;;;;;;;7.25;1.10;;;;;;;;;;4921991;29;20036;-78
2022/02/05 12:28:29;;;;;;;4.28;1.20;;;;;;;;;;4922962;29;20095;-83
2022/02/05 12:30:55;;;;;;;4.28;1.00;;;;;;;;;;4933329;29;20071;-84
2022/02/05 12:33:20;;;;;;;5.80;0.77;;;;;;;;;;4937397;29;20016;-83
2022/02/05 12:35:50;;;;;;;4.30;1.10;;;;;;;;;;4934777;29;20031;-82
2022/02/05 12:38:15;;;;;;;2.83;0.88;;;;;;;;;;4917683;29;20031;-82
2022/02/05 12:40:45;;;;;;;4.55;0.90;;;;;;;;;;4918385;29;20116;-83
2022/02/05 12:43:12;;;;;;;4.28;1.35;;;;;;;;;;4936294;29;20020;-81
2022/02/05 12:45:44;;;;;;;6.75;1.33;;;;;;;;;;4934369;29;20020;-83
2022/02/05 12:48:09;;;;;;;5.13;1.38;;;;;;;;;;4933977;29;20538;-83
2022/02/05 12:50:36;;;;;;;2.88;1.05;;;;;;;;;;4917085;29;20020;-89
2022/02/05 12:53:02;;;;;;;6.25;1.42;;;;;;;;;;4924730;29;20028;-89
2022/02/05 12:55:28;;;;;;;3.25;0.90;;;;;;;;;;4922090;29;20024;-92
2022/02/05 12:58:00;;;;;;;3.38;1.15;;;;;;;;;;4908027;29;20051;-90
2022/02/05 13:00:25;;;;;;;7.43;1.17;;;;;;;;;;4911794;29;20076;-90
2022/02/05 13:02:51;;;;;;;2.83;0.93;;;;;;;;;;4911664;29;20032;-91
2022/02/05 13:05:16;;;;;;;7.18;1.58;;;;;;;;;;4916560;29;20020;-84
2022/02/05 13:07:42;;;;;;;7.30;1.80;;;;;;;;;;4925989;29;20016;-84
2022/02/05 13:10:08;;;;;;;4.55;1.13;;;;;;;;;;4940890;29;20060;-85
2022/02/05 13:12:35;;;;;;;3.08;1.13;;;;;;;;;;4938363;29;20024;-81
2022/02/05 13:15:06;;;;;;;4.40;1.10;;;;;;;;;;4933529;29;20020;-92
2022/02/05 13:36:08;;;;;;;6.20;1.40;;;;;;;;;;5006936;23;20058;-84
2022/02/05 13:38:52;;;;;;;5.43;1.40;;;;;;;;;;4943784;29;20020;-88
2022/02/05 13:41:17;;;;;;;5.65;1.02;;;;;;;;;;4935585;29;20028;-85
2022/02/05 13:44:12;;;;;;;4.03;1.65;;;;;;;;;;4940915;29;20059;-84
2022/02/05 13:46:39;;;;;;;6.53;1.30;;;;;;;;;;4942071;29;20012;-85
2022/02/05 13:49:18;;;;;;;5.40;1.25;;;;;;;;;;4970109;23;20034;-84
2022/02/05 13:51:44;;;;;;;4.57;1.00;;;;;;;;;;4937409;29;20047;-83
2022/02/05 13:54:12;;;;;;;5.30;1.42;;;;;;;;;;4959932;29;20039;-83
2022/02/05 13:56:40;;;;;;;3.72;1.02;;;;;;;;;;4958816;29;20020;-84
2022/02/05 13:59:18;;;;;;;5.20;1.10;;;;;;;;;;4960779;29;20012;-84
2022/02/05 14:01:46;;;;;;;3.25;0.98;;;;;;;;;;4960238;29;20041;-83
2022/02/05 14:04:19;;;;;;;2.60;1.20;;;;;;;;;;4960770;29;20023;-84
2022/02/05 14:06:57;;;;;;;3.70;1.00;;;;;;;;;;4959257;29;20060;-84
2022/02/05 14:09:30;;;;;;;8.93;1.17;;;;;;;;;;4960154;29;20048;-83
2022/02/05 14:11:59;;;;;;;9.02;1.45;;;;;;;;;;4943764;29;20027;-82
2022/02/05 14:14:29;;;;;;;6.85;1.58;;;;;;;;;;4959969;29;20019;-84
2022/02/05 14:17:00;;;;;;;8.63;1.33;;;;;;;;;;4960022;29;20008;-84
2022/02/05 14:19:27;;;;;;;5.13;1.10;;;;;;;;;;4943159;29;20054;-84
2022/02/05 14:21:56;;;;;;;3.65;0.90;;;;;;;;;;4961139;29;20019;-84
2022/02/05 14:24:26;;;;;;;6.10;1.20;;;;;;;;;;4961415;29;20012;-83
2022/02/05 14:27:02;;;;;;;3.35;1.10;;;;;;;;;;4961486;29;20016;-84
2022/02/05 14:29:36;;;;;;;4.40;1.10;;;;;;;;;;5091660;23;20062;-84
2022/02/05 14:32:09;;;;;;;6.25;1.10;;;;;;;;;;4946175;29;20043;-83
2022/02/05 14:34:46;;;;;;;11.63;6.78;;;;;;;;;;4942813;29;20012;-84
2022/02/05 14:42:40;;;;;;;3.53;1.15;;;;;;;;;;4903776;29;20069;-84
2022/02/05 14:45:06;;;;;;;5.93;1.20;;;;;;;;;;4904579;29;20041;-84
2022/02/05 14:47:32;;;;;;;3.70;1.20;;;;;;;;;;4904625;29;20060;-83
2022/02/05 14:49:57;;;;;;;8.32;1.95;;;;;;;;;;4904296;29;20025;-85
2022/02/05 14:52:23;;;;;;;4.25;1.20;;;;;;;;;;5007516;23;20027;-84
2022/02/05 14:54:48;;;;;;;5.43;1.35;;;;;;;;;;4960833;29;20019;-85
2022/02/05 14:57:14;;;;;;;4.85;1.35;;;;;;;;;;4960948;29;20080;-86
2022/02/05 14:59:44;;;;;;;6.10;1.85;;;;;;;;;;5202034;23;20055;-84
2022/02/05 15:02:10;;;;;;;4.38;1.33;;;;;;;;;;4992120;23;20020;-79
2022/02/05 15:04:36;;;;;;;6.85;1.48;;;;;;;;;;4964350;28;20027;-85
2022/02/05 15:07:02;;;;;;;6.38;1.15;;;;;;;;;;5049742;23;20051;-85
2022/02/05 15:09:28;;;;;;;2.97;1.10;;;;;;;;;;4978297;29;20141;-85
2022/02/05 15:11:54;;;;;;;2.10;0.90;;;;;;;;;;4948343;29;20015;-85
2022/02/05 15:14:20;;;;;;;3.50;1.20;;;;;;;;;;4956952;29;20008;-83
2022/02/05 15:19:20;;;;;;;3.72;1.08;;;;;;;;;;4971358;23;20056;-84
2022/02/05 15:21:49;;;;;;;3.97;1.05;;;;;;;;;;4929980;29;20024;-83
2022/02/05 15:24:14;;;;;;;9.48;1.30;;;;;;;;;;4924785;29;20044;-85
2022/02/05 15:26:40;;;;;;;4.95;1.20;;;;;;;;;;4939108;29;20044;-84
2022/02/05 15:29:06;;;;;;;3.35;1.20;;;;;;;;;;4935935;29;20028;-82
2022/02/05 15:31:32;;;;;;;3.40;1.02;;;;;;;;;;4937430;29;20055;-83
2022/02/05 15:34:03;;;;;;;6.35;1.52;;;;;;;;;;4955874;29;20032;-83
2022/02/05 15:39:13;;;;;;;7.32;1.40;;;;;;;;;;4959742;29;20040;-82
2022/02/05 15:44:28;;;;;;;2.40;1.13;;;;;;;;;;4937312;29;20047;-84
2022/02/05 15:46:53;;;;;;;4.55;1.15;;;;;;;;;;4925190;29;20036;-83
2022/02/05 15:51:58;;;;;;;4.07;1.20;;;;;;;;;;4967387;23;20043;-81
2022/02/05 15:54:49;;;;;;;5.78;1.80;;;;;;;;;;4951905;29;20012;-83
2022/02/05 16:00:20;;;;;;;2.65;1.17;;;;;;;;;;4949994;29;20065;-83
2022/02/05 16:02:51;;;;;;;5.20;1.50;;;;;;;;;;4947318;29;20036;-82
2022/02/05 16:05:16;;;;;;;3.88;1.13;;;;;;;;;;4953174;29;20132;-82
2022/02/05 16:07:44;;;;;;;4.85;1.23;;;;;;;;;;4934778;29;20024;-83
2022/02/05 16:10:10;;;;;;;3.83;1.42;;;;;;;;;;4924524;29;20008;-81
2022/02/05 16:12:54;;;;;;;;;;;;;;;;;;;;;
2022/02/05 16:15:22;;;;;;;2.85;1.30;;;;;;;;;;4950704;29;20059;-83
2022/02/05 16:17:50;;;;;;;5.60;1.80;;;;;;;;;;4949526;29;20035;-83
2022/02/05 16:23:24;;;;;;;3.85;1.27;;;;;;;;;;4930792;29;20565;-76
2022/02/05 16:25:49;;;;;;;5.90;1.50;;;;;;;;;;4932609;29;20139;-76
2022/02/05 16:28:14;;;;;;;4.04;1.20;;;;;;;;;;4915520;29;20015;-76
2022/02/05 16:30:40;;;;;;;6.05;1.67;;;;;;;;;;4936656;29;20024;-76
2022/02/05 16:33:13;;;;;;;4.30;1.35;;;;;;;;;;4900415;29;20027;-76
2022/02/05 16:35:44;;;;;;;2.97;1.30;;;;;;;;;;4900939;29;20549;-76
2022/02/05 16:38:17;;;;;;;6.40;1.48;;;;;;;;;;4917611;29;20050;-76
2022/02/05 16:40:42;;;;;;;5.25;1.50;;;;;;;;;;4918870;29;20490;-76
2022/02/05 16:43:07;;;;;;;4.72;1.60;;;;;;;;;;4901532;29;20036;-76
2022/02/05 16:45:36;;;;;;;4.25;1.45;;;;;;;;;;4918625;29;20032;-76
2022/02/05 16:48:01;;;;;;;4.88;1.50;;;;;;;;;;4901642;29;20031;-76
2022/02/05 16:50:28;;;;;;;6.80;1.55;;;;;;;;;;4923155;29;20020;-76
2022/02/05 16:53:01;;;;;;;3.78;1.40;;;;;;;;;;4918810;29;20021;-77
2022/02/05 16:55:26;;;;;;;6.85;1.40;;;;;;;;;;4918277;29;20389;-76
2022/02/05 16:57:51;;;;;;;5.47;1.60;;;;;;;;;;4918416;29;20047;-76
2022/02/05 17:00:16;;;;;;;5.88;1.58;;;;;;;;;;4918656;29;20032;-75
2022/02/05 17:02:42;;;;;;;5.13;2.03;;;;;;;;;;4918296;29;20027;-75
2022/02/05 17:05:08;;;;;;;5.47;1.10;;;;;;;;;;4918559;29;20035;-75
2022/02/05 17:07:33;;;;;;;6.88;1.60;;;;;;;;;;4918887;29;20020;-75
2022/02/05 17:09:58;;;;;;;4.13;1.83;;;;;;;;;;4917329;29;20378;-75
2022/02/05 17:12:24;;;;;;;7.60;2.05;;;;;;;;;;4918547;29;20103;-76
2022/02/05 17:14:52;;;;;;;5.03;1.63;;;;;;;;;;4901376;29;20474;-75
2022/02/05 17:17:19;;;;;;;6.13;1.60;;;;;;;;;;4901392;29;20027;-76
2022/02/05 17:19:50;;;;;;;10.50;3.38;;;;;;;;;;4901300;29;20366;-77
2022/02/05 17:22:15;;;;;;;3.92;1.48;;;;;;;;;;4918017;29;20047;-76
2022/02/05 17:24:41;;;;;;;4.72;1.73;;;;;;;;;;4917947;29;20020;-76
2022/02/05 17:27:06;;;;;;;8.48;2.03;;;;;;;;;;4918335;29;20450;-76
2022/02/05 17:29:35;;;;;;;7.88;1.60;;;;;;;;;;4917922;29;20023;-76
2022/02/05 17:32:04;;;;;;;6.70;2.05;;;;;;;;;;4918290;29;20023;-76
2022/02/05 17:34:29;;;;;;;3.03;1.10;;;;;;;;;;4918202;29;20035;-76
2022/02/05 17:36:54;;;;;;;10.02;1.60;;;;;;;;;;4917324;29;20417;-76
2022/02/05 17:39:20;;;;;;;5.47;1.40;;;;;;;;;;4918337;29;20469;-76
2022/02/05 17:41:45;;;;;;;4.75;1.65;;;;;;;;;;4918258;29;20386;-76
2022/02/05 17:44:10;;;;;;;2.40;1.10;;;;;;;;;;4917048;29;20393;-76
2022/02/05 17:46:36;;;;;;;3.63;1.60;;;;;;;;;;4900948;29;20378;-76
2022/02/05 17:49:01;;;;;;;2.85;1.13;;;;;;;;;;4918338;29;20464;-76
2022/02/05 17:51:26;;;;;;;10.00;1.50;;;;;;;;;;4900775;29;20107;-76
2022/02/05 17:53:52;;;;;;;8.10;1.20;;;;;;;;;;4917963;29;20016;-75
2022/02/05 17:56:17;;;;;;;8.73;1.92;;;;;;;;;;4917974;29;20108;-76
2022/02/05 17:58:42;;;;;;;4.93;1.33;;;;;;;;;;4918060;29;20101;-75
2022/02/05 18:01:09;;;;;;;4.10;1.20;;;;;;;;;;4917989;29;20281;-76
2022/02/05 18:03:40;;;;;;;4.03;1.48;;;;;;;;;;4917826;29;20064;-76
2022/02/05 18:06:09;;;;;;;3.60;1.63;;;;;;;;;;4900770;29;20043;-75
2022/02/05 18:08:52;;;;;;;6.20;1.25;;;;;;;;;;4917768;29;20032;-75
2022/02/05 18:11:25;;;;;;;6.53;1.38;;;;;;;;;;4917432;29;20151;-75
2022/02/05 18:16:19;;;;;;;2.90;1.15;;;;;;;;;;4918721;29;20035;-76